createdAt,value
2019-05-23T00:01:58.484Z,101490.39
2019-05-23T00:04:32.334Z,101495.16
2019-05-23T00:07:01.960Z,101493.09
2019-05-23T00:09:30.871Z,101496.78
2019-05-23T00:12:08.312Z,101499.22
2019-05-23T00:14:44.615Z,101497.83
2019-05-23T00:17:14.114Z,101504.97
2019-05-23T00:19:43.035Z,101498.31
2019-05-23T00:22:12.203Z,101499.33
2019-05-23T00:24:41.117Z,101494.06
2019-05-23T00:27:10.002Z,101495.50
2019-05-23T00:29:40.479Z,101493.54
2019-05-23T00:32:16.579Z,101492.15
2019-05-23T00:34:45.462Z,101499.02
2019-05-23T00:37:14.437Z,101493.72
2019-05-23T00:39:43.647Z,101490.14
2019-05-23T00:42:12.553Z,101494.41
2019-05-23T00:44:41.636Z,101490.34
2019-05-23T00:47:10.526Z,101492.03
2019-05-23T00:49:39.448Z,101487.82
2019-05-23T00:52:08.409Z,101484.84
2019-05-23T00:54:37.322Z,101478.56
2019-05-23T00:57:06.216Z,101484.39
2019-05-23T00:59:35.121Z,101488.28
2019-05-23T01:02:04.023Z,101485.88
2019-05-23T01:04:32.915Z,101485.94
2019-05-23T01:07:01.785Z,101481.45
2019-05-23T01:09:30.696Z,101482.20
2019-05-23T01:11:59.606Z,101478.55
2019-05-23T01:14:28.508Z,101484.45
2019-05-23T01:16:57.432Z,101482.31
2019-05-23T01:19:26.449Z,101481.11
2019-05-23T01:22:02.489Z,101478.19
2019-05-23T01:24:36.893Z,101479.61
2019-05-23T01:27:06.624Z,101477.91
2019-05-23T01:29:42.232Z,101480.77
2019-05-23T01:32:30.256Z,101473.07
2019-05-23T01:34:59.517Z,101468.13
2019-05-23T01:37:28.419Z,101470.77
2019-05-23T01:39:57.343Z,101469.95
2019-05-23T01:42:26.503Z,101463.52
2019-05-23T01:44:55.764Z,101466.48
2019-05-23T01:47:24.664Z,101466.81
2019-05-23T01:49:53.586Z,101461.64
2019-05-23T01:52:22.498Z,101465.20
2019-05-23T01:54:51.382Z,101458.47
2019-05-23T01:57:20.309Z,101453.09
2019-05-23T01:59:49.221Z,101456.61
2019-05-23T02:02:18.896Z,101453.39
2019-05-23T02:04:47.753Z,101452.92
2019-05-23T02:07:16.898Z,101450.61
2019-05-23T02:09:45.826Z,101447.63
2019-05-23T02:12:14.722Z,101443.56
2019-05-23T02:14:44.512Z,101446.50
2019-05-23T02:17:13.430Z,101445.67
2019-05-23T02:19:42.359Z,101444.58
2019-05-23T02:22:12.197Z,101448.37
2019-05-23T02:24:42.171Z,101448.48
2019-05-23T02:27:11.055Z,101452.72
2019-05-23T02:29:40.596Z,101449.81
2019-05-23T02:32:09.542Z,101441.84
2019-05-23T02:34:38.469Z,101447.98
2019-05-23T02:37:10.573Z,101446.08
2019-05-23T02:39:49.264Z,101440.51
2019-05-23T02:42:37.640Z,101433.59
2019-05-23T02:45:08.447Z,101428.89
2019-05-23T02:47:38.187Z,101428.31
2019-05-23T02:50:07.612Z,101427.65
2019-05-23T02:52:39.761Z,101423.79
2019-05-23T02:55:12.038Z,101424.11
2019-05-23T02:57:41.178Z,101424.47
2019-05-23T03:00:30.624Z,101426.39
2019-05-23T03:03:04.797Z,101421.81
2019-05-23T03:05:33.701Z,101421.20
2019-05-23T03:08:02.635Z,101419.68
2019-05-23T03:10:48.596Z,101415.98
2019-05-23T03:13:17.796Z,101421.22
2019-05-23T03:15:46.717Z,101422.46
2019-05-23T03:18:15.778Z,101416.30
2019-05-23T03:20:44.688Z,101419.66
2019-05-23T03:23:13.604Z,101415.96
2019-05-23T03:26:15.422Z,101416.42
2019-05-23T03:28:44.335Z,101420.13
2019-05-23T03:31:29.761Z,101416.25
2019-05-23T03:33:49.080Z,101415.30
2019-05-23T03:36:17.959Z,101416.11
2019-05-23T03:38:46.879Z,101417.38
2019-05-23T03:41:15.760Z,101413.95
2019-05-23T03:43:44.676Z,101415.30
2019-05-23T03:46:13.994Z,101409.17
2019-05-23T03:48:42.933Z,101409.73
2019-05-23T03:51:11.825Z,101409.66
2019-05-23T03:53:41.245Z,101411.06
2019-05-23T03:56:10.591Z,101407.19
2019-05-23T03:58:39.529Z,101407.52
2019-05-23T04:01:08.542Z,101403.93
2019-05-23T04:03:40.025Z,101404.25
2019-05-23T04:06:06.608Z,101399.65
2019-05-23T04:08:35.499Z,101404.86
2019-05-23T04:11:04.462Z,101402.43
2019-05-23T04:13:33.380Z,101401.11
2019-05-23T04:16:02.263Z,101389.59
2019-05-23T04:18:31.221Z,101393.01
2019-05-23T04:21:00.120Z,101395.70
2019-05-23T04:23:29.038Z,101387.33
2019-05-23T04:25:57.923Z,101391.06
2019-05-23T04:28:26.853Z,101393.24
2019-05-23T04:30:55.751Z,101387.27
2019-05-23T04:33:24.650Z,101388.62
2019-05-23T04:35:53.564Z,101383.85
2019-05-23T04:38:22.467Z,101386.67
2019-05-23T04:40:51.385Z,101384.83
2019-05-23T04:43:20.283Z,101387.42
2019-05-23T04:45:49.202Z,101386.56
2019-05-23T04:48:18.100Z,101387.80
2019-05-23T04:50:47.023Z,101391.02
2019-05-23T04:53:15.928Z,101395.23
2019-05-23T04:55:44.839Z,101393.79
2019-05-23T04:58:13.829Z,101383.83
2019-05-23T05:00:42.725Z,101388.16
2019-05-23T05:03:11.685Z,101389.77
2019-05-23T05:05:40.902Z,101389.31
2019-05-23T05:08:10.014Z,101383.13
2019-05-23T05:10:38.563Z,101384.62
2019-05-23T05:13:07.539Z,101388.05
2019-05-23T05:15:36.447Z,101387.47
2019-05-23T05:18:05.421Z,101392.06
2019-05-23T05:20:34.286Z,101385.87
2019-05-23T05:23:03.201Z,101389.17
2019-05-23T05:25:32.098Z,101388.84
2019-05-23T05:28:00.973Z,101385.47
2019-05-23T05:30:29.880Z,101383.08
2019-05-23T05:32:58.785Z,101391.36
2019-05-23T05:35:27.954Z,101387.13
2019-05-23T05:37:56.949Z,101392.20
2019-05-23T05:40:25.849Z,101392.75
2019-05-23T05:42:54.762Z,101404.20
2019-05-23T05:45:23.679Z,101402.99
2019-05-23T05:47:52.566Z,101402.06
2019-05-23T05:50:21.497Z,101410.97
2019-05-23T05:52:50.424Z,101411.48
2019-05-23T05:55:19.301Z,101413.72
2019-05-23T05:57:48.181Z,101416.56
2019-05-23T06:00:30.325Z,101421.94
2019-05-23T06:03:04.599Z,101421.51
2019-05-23T06:05:34.245Z,101423.69
2019-05-23T06:08:03.494Z,101428.22
2019-05-23T06:10:32.426Z,101411.34
2019-05-23T06:13:01.332Z,101420.70
2019-05-23T06:15:30.241Z,101417.48
2019-05-23T06:17:59.253Z,101417.31
2019-05-23T06:20:28.145Z,101412.52
2019-05-23T06:22:57.058Z,101402.81
2019-05-23T06:25:25.986Z,101406.21
2019-05-23T06:27:54.871Z,101405.47
2019-05-23T06:30:23.913Z,101401.48
2019-05-23T06:32:52.806Z,101397.08
2019-05-23T06:35:21.732Z,101394.19
2019-05-23T06:37:50.669Z,101402.67
2019-05-23T06:40:19.566Z,101405.99
2019-05-23T06:42:50.961Z,101398.39
2019-05-23T06:45:17.416Z,101393.21
2019-05-23T06:47:46.322Z,101394.16
2019-05-23T06:50:16.391Z,101389.69
2019-05-23T06:52:45.365Z,101384.64
2019-05-23T06:55:14.232Z,101386.60
2019-05-23T06:57:43.139Z,101383.39
2019-05-23T07:00:15.831Z,101378.07
2019-05-23T07:02:45.188Z,101375.48
2019-05-23T07:05:14.410Z,101380.55
2019-05-23T07:07:46.712Z,101376.09
2019-05-23T07:10:17.263Z,101381.02
2019-05-23T07:12:46.612Z,101386.83
2019-05-23T07:15:18.114Z,101377.61
2019-05-23T07:17:47.286Z,101373.88
2019-05-23T07:20:19.366Z,101380.58
2019-05-23T07:22:48.804Z,101374.78
2019-05-23T07:25:22.814Z,101384.41
2019-05-23T07:27:52.135Z,101374.39
2019-05-23T07:30:21.552Z,101370.02
2019-05-23T07:32:50.881Z,101367.11
2019-05-23T07:35:20.353Z,101373.95
2019-05-23T07:37:49.439Z,101372.86
2019-05-23T07:40:23.906Z,101372.20
2019-05-23T07:42:53.197Z,101376.55
2019-05-23T07:45:25.383Z,101371.37
2019-05-23T07:47:55.073Z,101369.81
2019-05-23T07:50:26.982Z,101369.28
2019-05-23T07:52:57.763Z,101368.34
2019-05-23T07:55:34.307Z,101376.94
2019-05-23T07:58:13.588Z,101371.36
2019-05-23T08:00:43.015Z,101370.81
2019-05-23T08:03:12.563Z,101367.80
2019-05-23T08:05:41.775Z,101363.77
2019-05-23T08:08:13.596Z,101365.39
2019-05-23T08:10:42.738Z,101366.17
2019-05-23T08:13:12.112Z,101361.87
2019-05-23T08:15:41.652Z,101360.95
2019-05-23T08:18:11.323Z,101370.55
2019-05-23T08:20:43.376Z,101360.67
2019-05-23T08:23:13.417Z,101349.84
2019-05-23T08:25:47.098Z,101351.38
2019-05-23T08:28:20.991Z,101344.45
2019-05-23T08:30:50.404Z,101348.70
2019-05-23T08:33:23.309Z,101355.22
2019-05-23T08:35:52.519Z,101348.99
2019-05-23T08:38:21.633Z,101347.06
2019-05-23T08:40:53.333Z,101343.53
2019-05-23T08:43:23.368Z,101345.86
2019-05-23T08:45:52.526Z,101348.92
2019-05-23T08:48:22.375Z,101339.59
2019-05-23T08:50:54.039Z,101342.66
2019-05-23T08:53:30.792Z,101348.05
2019-05-23T08:55:59.782Z,101345.50
2019-05-23T08:58:29.509Z,101338.48
2019-05-23T09:00:58.903Z,101329.66
2019-05-23T09:03:28.109Z,101333.69
2019-05-23T09:05:57.290Z,101337.78
2019-05-23T09:08:28.814Z,101322.96
2019-05-23T09:10:59.798Z,101323.57
2019-05-23T09:13:27.361Z,101327.95
2019-05-23T09:15:58.098Z,101324.50
2019-05-23T09:18:30.295Z,101324.88
2019-05-23T09:20:59.849Z,101327.63
2019-05-23T09:23:29.099Z,101323.23
2019-05-23T09:26:03.497Z,101310.52
2019-05-23T09:28:35.396Z,101318.64
2019-05-23T09:31:04.667Z,101311.14
2019-05-23T09:33:33.855Z,101315.98
2019-05-23T09:36:12.324Z,101311.84
2019-05-23T09:38:41.518Z,101320.67
2019-05-23T09:41:15.876Z,101317.88
2019-05-23T09:43:45.307Z,101305.27
2019-05-23T09:46:14.663Z,101300.88
2019-05-23T09:48:47.723Z,101303.99
2019-05-23T09:51:19.946Z,101294.92
2019-05-23T09:53:49.505Z,101301.89
2019-05-23T09:56:20.395Z,101299.91
2019-05-23T09:58:51.382Z,101307.27
2019-05-23T10:01:20.741Z,101294.07
2019-05-23T10:04:01.759Z,101288.28
2019-05-23T10:06:33.722Z,101295.45
2019-05-23T10:09:06.228Z,101280.02
2019-05-23T10:11:35.397Z,101286.85
2019-05-23T10:14:07.229Z,101284.81
2019-05-23T10:16:36.791Z,101275.92
2019-05-23T10:19:06.286Z,101269.01
2019-05-23T10:21:35.723Z,101285.55
2019-05-23T10:24:07.755Z,101269.92
2019-05-23T10:26:36.946Z,101279.15
2019-05-23T10:29:07.979Z,101280.11
2019-05-23T10:31:37.119Z,101280.45
2019-05-23T10:34:06.361Z,101274.91
2019-05-23T10:36:35.755Z,101261.52
2019-05-23T10:39:12.813Z,101258.56
2019-05-23T10:41:42.142Z,101259.61
2019-05-23T10:44:14.448Z,101262.34
2019-05-23T10:46:46.429Z,101260.56
2019-05-23T10:49:15.690Z,101251.38
2019-05-23T10:51:47.233Z,101247.86
2019-05-23T10:54:16.902Z,101245.72
2019-05-23T10:56:54.851Z,101238.95
2019-05-23T10:59:26.827Z,101235.52
2019-05-23T11:01:58.992Z,101236.39
2019-05-23T11:04:28.143Z,101243.89
2019-05-23T11:06:59.745Z,101236.80
2019-05-23T11:09:37.706Z,101247.73
2019-05-23T11:11:58.356Z,101240.41
2019-05-23T11:14:28.290Z,101235.42
2019-05-23T11:16:57.418Z,101226.23
2019-05-23T11:19:29.700Z,101215.41
2019-05-23T11:22:03.191Z,101209.67
2019-05-23T11:24:29.952Z,101214.23
2019-05-23T11:27:02.467Z,101199.77
2019-05-23T11:29:34.077Z,101218.05
2019-05-23T11:32:03.169Z,101212.97
2019-05-23T11:34:34.534Z,101214.55
2019-05-23T11:37:03.702Z,101200.65
2019-05-23T11:39:32.875Z,101196.27
2019-05-23T11:42:01.854Z,101213.98
2019-05-23T11:44:33.760Z,101212.45
2019-05-23T11:47:00.265Z,101198.45
2019-05-23T11:49:29.340Z,101197.33
2019-05-23T11:52:03.485Z,101196.72
2019-05-23T11:54:32.706Z,101198.69
2019-05-23T11:57:04.947Z,101197.00
2019-05-23T11:59:34.149Z,101183.92
2019-05-23T12:02:12.643Z,101186.79
2019-05-23T12:04:45.015Z,101184.75
2019-05-23T12:07:33.431Z,101184.91
2019-05-23T12:10:05.848Z,101188.50
2019-05-23T12:12:38.118Z,101182.94
2019-05-23T12:15:08.098Z,101185.31
2019-05-23T12:17:41.543Z,101185.58
2019-05-23T12:20:11.150Z,101180.67
2019-05-23T12:22:42.418Z,101175.59
2019-05-23T12:25:21.979Z,101172.00
2019-05-23T12:27:40.581Z,101168.80
2019-05-23T12:30:09.846Z,101164.98
2019-05-23T12:32:44.357Z,101180.67
2019-05-23T12:35:13.548Z,101168.03
2019-05-23T12:37:45.799Z,101170.28
2019-05-23T12:40:15.048Z,101189.30
2019-05-23T12:42:44.108Z,101169.56
2019-05-23T12:45:13.285Z,101153.85
2019-05-23T12:47:55.519Z,101164.67
2019-05-23T12:50:27.146Z,101161.17
2019-05-23T12:52:58.176Z,101154.64
2019-05-23T12:55:27.631Z,101156.11
2019-05-23T12:57:56.919Z,101152.45
2019-05-23T13:00:44.078Z,101155.97
2019-05-23T13:03:13.992Z,101163.31
2019-05-23T13:05:46.006Z,101161.21
2019-05-23T13:08:18.538Z,101164.09
2019-05-23T13:10:48.135Z,101152.34
2019-05-23T13:13:17.726Z,101151.44
2019-05-23T13:15:49.903Z,101151.72
2019-05-23T13:18:19.088Z,101144.25
2019-05-23T13:20:48.154Z,101149.39
2019-05-23T13:23:20.909Z,101133.53
2019-05-23T13:25:46.773Z,101142.29
2019-05-23T13:28:16.123Z,101132.14
2019-05-23T13:30:45.455Z,101133.63
2019-05-23T13:33:14.837Z,101153.75
2019-05-23T13:35:43.969Z,101132.06
2019-05-23T13:38:13.567Z,101127.08
2019-05-23T13:40:42.946Z,101130.89
2019-05-23T13:43:14.333Z,101130.70
2019-05-23T13:45:43.378Z,101135.27
2019-05-23T13:48:12.594Z,101129.13
2019-05-23T13:50:46.368Z,101116.13
2019-05-23T13:53:15.763Z,101126.73
2019-05-23T13:55:48.069Z,101136.34
2019-05-23T13:58:19.812Z,101132.02
2019-05-23T14:00:51.778Z,101136.38
2019-05-23T14:03:32.504Z,101128.92
2019-05-23T14:06:01.897Z,101134.36
2019-05-23T14:08:31.007Z,101130.30
2019-05-23T14:11:00.062Z,101131.66
2019-05-23T14:13:29.358Z,101130.67
2019-05-23T14:16:04.043Z,101137.23
2019-05-23T14:18:36.003Z,101133.30
2019-05-23T14:21:05.135Z,101131.73
2019-05-23T14:23:34.210Z,101134.81
2019-05-23T14:26:03.621Z,101132.78
2019-05-23T14:28:33.049Z,101134.80
2019-05-23T14:31:34.871Z,101133.41
2019-05-23T14:34:13.937Z,101138.37
2019-05-23T14:36:52.124Z,101141.64
2019-05-23T14:39:39.227Z,101144.38
2019-05-23T14:42:45.575Z,101133.09
2019-05-23T14:45:35.140Z,101135.02
2019-05-23T14:48:12.989Z,101139.80
2019-05-23T14:51:24.867Z,101137.80
2019-05-23T14:53:55.219Z,101133.09
2019-05-23T14:56:25.145Z,101120.44
2019-05-23T14:58:54.371Z,101138.78
2019-05-23T15:01:23.370Z,101129.95
2019-05-23T15:03:52.205Z,101136.56
2019-05-23T15:06:21.112Z,101131.53
2019-05-23T15:08:51.818Z,101134.31
2019-05-23T15:11:18.981Z,101132.56
2019-05-23T15:13:47.824Z,101128.87
2019-05-23T15:16:16.729Z,101124.27
2019-05-23T15:18:45.608Z,101129.12
2019-05-23T15:21:14.524Z,101129.30
2019-05-23T15:23:43.405Z,101115.27
2019-05-23T15:26:22.201Z,101116.12
2019-05-23T15:28:41.240Z,101121.37
2019-05-23T15:31:10.183Z,101119.73
2019-05-23T15:33:39.087Z,101116.05
2019-05-23T15:36:08.052Z,101122.82
2019-05-23T15:38:36.910Z,101114.81
2019-05-23T15:41:06.007Z,101119.77
2019-05-23T15:43:34.842Z,101114.63
2019-05-23T15:46:03.744Z,101114.47
2019-05-23T15:48:32.688Z,101117.66
2019-05-23T15:51:01.564Z,101121.48
2019-05-23T15:53:48.422Z,101122.30
2019-05-23T15:56:29.632Z,101114.91
2019-05-23T15:59:17.566Z,101113.51
2019-05-23T16:01:52.481Z,101112.53
2019-05-23T16:04:21.398Z,101119.95
2019-05-23T16:06:50.295Z,101128.78
2019-05-23T16:09:29.344Z,101125.91
2019-05-23T16:11:48.077Z,101122.75
2019-05-23T16:14:16.980Z,101123.28
2019-05-23T16:16:45.901Z,101130.86
2019-05-23T16:19:14.819Z,101127.66
2019-05-23T16:21:43.694Z,101129.38
2019-05-23T16:24:12.592Z,101131.44
2019-05-23T16:26:41.508Z,101128.29
2019-05-23T16:29:10.432Z,101132.42
2019-05-23T16:31:39.343Z,101130.16
2019-05-23T16:34:08.330Z,101128.87
2019-05-23T16:36:37.206Z,101127.84
2019-05-23T16:39:07.736Z,101122.75
2019-05-23T16:41:36.688Z,101121.70
2019-05-23T16:44:05.742Z,101121.49
2019-05-23T16:46:34.644Z,101116.59
2019-05-23T16:49:03.592Z,101119.69
2019-05-23T16:51:32.483Z,101121.11
2019-05-23T16:54:01.478Z,101118.35
2019-05-23T16:56:37.521Z,101116.96
2019-05-23T16:59:22.745Z,101123.89
2019-05-23T17:02:07.149Z,101116.54
2019-05-23T17:05:09.417Z,101112.22
2019-05-23T17:07:42.052Z,101113.89
2019-05-23T17:10:24.720Z,101116.13
2019-05-23T17:13:16.069Z,101106.18
2019-05-23T17:15:52.074Z,101111.05
2019-05-23T17:18:37.390Z,101114.19
2019-05-23T17:21:40.719Z,101106.09
2019-05-23T17:24:27.203Z,101107.28
2019-05-23T17:27:15.206Z,101112.40
2019-05-23T17:29:47.171Z,101113.00
2019-05-23T17:32:18.381Z,101105.31
2019-05-23T17:34:47.274Z,101112.75
2019-05-23T17:37:16.161Z,101105.75
2019-05-23T17:39:45.104Z,101103.49
2019-05-23T17:42:14.044Z,101102.97
2019-05-23T17:44:42.929Z,101107.11
2019-05-23T17:47:11.836Z,101106.12
2019-05-23T17:49:40.703Z,101110.36
2019-05-23T17:52:09.760Z,101106.30
2019-05-23T17:54:38.666Z,101106.16
2019-05-23T17:57:07.759Z,101114.30
2019-05-23T17:59:36.661Z,101114.58
2019-05-23T18:02:05.608Z,101114.58
2019-05-23T18:04:34.522Z,101114.17
2019-05-23T18:07:03.473Z,101111.28
2019-05-23T18:09:32.366Z,101108.77
2019-05-23T18:12:01.247Z,101110.10
2019-05-23T18:14:30.165Z,101113.12
2019-05-23T18:16:59.070Z,101115.58
2019-05-23T18:19:28.072Z,101122.33
2019-05-23T18:21:56.991Z,101116.01
2019-05-23T18:24:25.892Z,101120.77
2019-05-23T18:26:54.842Z,101114.91
2019-05-23T18:29:23.673Z,101119.31
2019-05-23T18:31:52.551Z,101111.73
2019-05-23T18:34:21.459Z,101120.16
2019-05-23T18:36:50.348Z,101120.56
2019-05-23T18:39:19.265Z,101115.41
2019-05-23T18:41:48.181Z,101109.62
2019-05-23T18:44:17.088Z,101117.63
2019-05-23T18:46:47.184Z,101111.77
2019-05-23T18:49:16.071Z,101111.66
2019-05-23T18:51:44.964Z,101114.83
2019-05-23T18:54:13.864Z,101107.87
2019-05-23T18:56:42.795Z,101112.16
2019-05-23T18:59:11.692Z,101116.91
2019-05-23T19:01:40.626Z,101114.20
2019-05-23T19:04:09.638Z,101106.80
2019-05-23T19:06:38.523Z,101107.84
2019-05-23T19:09:08.181Z,101106.56
2019-05-23T19:11:37.114Z,101102.63
2019-05-23T19:14:06.054Z,101106.48
2019-05-23T19:16:34.936Z,101112.81
2019-05-23T19:19:03.866Z,101110.16
2019-05-23T19:21:32.763Z,101109.12
2019-05-23T19:24:01.706Z,101102.39
2019-05-23T19:26:31.025Z,101099.97
2019-05-23T19:28:59.949Z,101105.16
2019-05-23T19:31:28.848Z,101102.80
2019-05-23T19:33:57.757Z,101110.11
2019-05-23T19:36:26.659Z,101118.95
2019-05-23T19:38:55.560Z,101110.84
2019-05-23T19:41:36.794Z,101107.72
2019-05-23T19:43:53.369Z,101115.91
2019-05-23T19:46:22.279Z,101117.42
2019-05-23T19:48:51.199Z,101114.30
2019-05-23T19:51:20.118Z,101122.16
2019-05-23T19:53:49.036Z,101116.80
2019-05-23T19:56:17.937Z,101120.29
2019-05-23T19:58:46.845Z,101118.48
2019-05-23T20:01:16.068Z,101113.55
2019-05-23T20:03:44.927Z,101119.79
2019-05-23T20:06:14.670Z,101114.72
2019-05-23T20:08:43.577Z,101115.63
2019-05-23T20:11:12.532Z,101112.45
2019-05-23T20:13:41.422Z,101121.55
2019-05-23T20:16:10.884Z,101118.16
2019-05-23T20:18:39.306Z,101121.96
2019-05-23T20:21:12.136Z,101115.80
2019-05-23T20:23:41.048Z,101114.97
2019-05-23T20:26:10.009Z,101111.20
2019-05-23T20:28:40.062Z,101110.97
2019-05-23T20:31:07.807Z,101111.77
2019-05-23T20:33:36.717Z,101112.55
2019-05-23T20:36:11.941Z,101113.47
2019-05-23T20:38:37.625Z,101108.20
2019-05-23T20:41:06.688Z,101111.62
2019-05-23T20:43:35.498Z,101112.79
2019-05-23T20:46:04.482Z,101113.52
2019-05-23T20:48:33.406Z,101108.41
2019-05-23T20:51:02.291Z,101105.47
2019-05-23T20:53:31.693Z,101109.59
2019-05-23T20:56:00.618Z,101108.22
2019-05-23T20:58:29.523Z,101106.46
2019-05-23T21:01:06.388Z,101109.20
2019-05-23T21:03:36.262Z,101110.22
2019-05-23T21:06:04.348Z,101106.29
2019-05-23T21:08:33.121Z,101106.42
2019-05-23T21:11:02.019Z,101099.91
2019-05-23T21:13:30.916Z,101098.17
2019-05-23T21:15:59.827Z,101103.44
2019-05-23T21:18:28.723Z,101103.59
2019-05-23T21:20:57.622Z,101104.59
2019-05-23T21:23:26.539Z,101104.66
2019-05-23T21:26:01.202Z,101101.16
2019-05-23T21:28:30.127Z,101100.27
2019-05-23T21:30:59.060Z,101110.52
2019-05-23T21:33:27.961Z,101106.70
2019-05-23T21:35:56.835Z,101108.88
2019-05-23T21:38:25.728Z,101103.89
2019-05-23T21:40:54.602Z,101101.31
2019-05-23T21:43:23.510Z,101104.51
2019-05-23T21:45:52.376Z,101101.77
2019-05-23T21:48:21.278Z,101099.70
2019-05-23T21:50:50.159Z,101096.62
2019-05-23T21:53:19.137Z,101099.50
2019-05-23T21:55:47.967Z,101096.78
2019-05-23T21:58:16.908Z,101099.05
2019-05-23T22:01:26.756Z,101095.25
2019-05-23T22:04:29.722Z,101097.34
2019-05-23T22:07:02.824Z,101091.98
2019-05-23T22:09:31.748Z,101102.38
2019-05-23T22:12:01.385Z,101095.17
2019-05-23T22:14:30.278Z,101091.43
2019-05-23T22:16:59.162Z,101084.11
2019-05-23T22:19:28.062Z,101084.52
2019-05-23T22:21:56.978Z,101089.50
2019-05-23T22:24:25.892Z,101086.25
2019-05-23T22:26:54.771Z,101081.56
2019-05-23T22:29:23.736Z,101085.76
2019-05-23T22:31:56.281Z,101084.20
2019-05-23T22:34:55.862Z,101085.55
2019-05-23T22:37:26.036Z,101079.23
2019-05-23T22:39:54.968Z,101080.41
2019-05-23T22:42:24.459Z,101082.27
2019-05-23T22:44:53.351Z,101079.67
2019-05-23T22:47:22.261Z,101078.61
2019-05-23T22:49:51.181Z,101069.06
2019-05-23T22:52:20.129Z,101075.39
2019-05-23T22:54:48.962Z,101074.81
2019-05-23T22:57:17.852Z,101078.52
2019-05-23T22:59:46.743Z,101072.16
2019-05-23T23:02:16.473Z,101073.00
2019-05-23T23:04:45.399Z,101074.16
2019-05-23T23:07:14.276Z,101069.34
2019-05-23T23:09:43.193Z,101066.70
2019-05-23T23:12:12.084Z,101066.50
2019-05-23T23:14:40.979Z,101062.06
2019-05-23T23:17:09.942Z,101072.53
2019-05-23T23:19:38.930Z,101074.51
2019-05-23T23:22:08.181Z,101078.30
2019-05-23T23:24:37.089Z,101071.56
2019-05-23T23:27:05.964Z,101071.66
2019-05-23T23:29:34.873Z,101070.44
2019-05-23T23:32:04.199Z,101067.22
2019-05-23T23:34:32.703Z,101060.31
2019-05-23T23:37:01.614Z,101058.09
2019-05-23T23:39:30.518Z,101056.09
2019-05-23T23:41:59.422Z,101054.73
2019-05-23T23:44:36.499Z,101056.39
2019-05-23T23:47:23.448Z,101050.77
2019-05-23T23:50:10.113Z,101042.88
2019-05-23T23:52:56.911Z,101049.79
2019-05-23T23:55:43.256Z,101046.86
2019-05-23T23:58:11.315Z,101039.86
